sensor_id;sensor_type;location;lat;lon;timestamp;pressure;altitude;pressure_sealevel;temperature;humidity
36828;BME280;22766;48.042;11.192;2022-10-26T00:01:14;95178.31;;;9.23;100.00
36828;BME280;22766;48.042;11.192;2022-10-26T00:03:42;95171.91;;;9.27;100.00
36828;BME280;22766;48.042;11.192;2022-10-26T00:08:39;95179.25;;;9.22;100.00
36828;BME280;22766;48.042;11.192;2022-10-26T00:11:06;95174.94;;;9.22;100.00
36828;BME280;22766;48.042;11.192;2022-10-26T00:13:33;95167.88;;;9.24;100.00
36828;BME280;22766;48.042;11.192;2022-10-26T00:16:00;95180.34;;;9.19;100.00
36828;BME280;22766;48.042;11.192;2022-10-26T00:18:27;95176.31;;;9.17;100.00
36828;BME280;22766;48.042;11.192;2022-10-26T00:20:54;95170.84;;;9.20;100.00
36828;BME280;22766;48.042;11.192;2022-10-26T00:23:20;95157.72;;;9.23;100.00
36828;BME280;22766;48.042;11.192;2022-10-26T00:25:54;95186.59;;;9.17;100.00
36828;BME280;22766;48.042;11.192;2022-10-26T00:28:21;95179.41;;;9.20;100.00
36828;BME280;22766;48.042;11.192;2022-10-26T00:30:48;95183.19;;;9.26;100.00
36828;BME280;22766;48.042;11.192;2022-10-26T00:33:15;95181.44;;;9.26;100.00
36828;BME280;22766;48.042;11.192;2022-10-26T00:35:42;95187.38;;;9.27;100.00
36828;BME280;22766;48.042;11.192;2022-10-26T00:38:12;95168.78;;;9.33;100.00
36828;BME280;22766;48.042;11.192;2022-10-26T00:40:38;95171.78;;;9.38;100.00
36828;BME280;22766;48.042;11.192;2022-10-26T00:43:32;95172.56;;;9.38;100.00
36828;BME280;22766;48.042;11.192;2022-10-26T00:46:00;95166.28;;;9.51;100.00
36828;BME280;22766;48.042;11.192;2022-10-26T00:48:33;95169.69;;;9.51;100.00
36828;BME280;22766;48.042;11.192;2022-10-26T00:51:05;95181.38;;;9.46;100.00
36828;BME280;22766;48.042;11.192;2022-10-26T00:53:34;95179.47;;;9.48;100.00
36828;BME280;22766;48.042;11.192;2022-10-26T00:56:01;95179.13;;;9.60;100.00
36828;BME280;22766;48.042;11.192;2022-10-26T00:58:28;95176.72;;;9.59;100.00
36828;BME280;22766;48.042;11.192;2022-10-26T01:00:55;95176.03;;;9.57;100.00
36828;BME280;22766;48.042;11.192;2022-10-26T01:03:22;95172.50;;;9.58;100.00
36828;BME280;22766;48.042;11.192;2022-10-26T01:05:56;95170.88;;;9.57;100.00
36828;BME280;22766;48.042;11.192;2022-10-26T01:08:23;95177.66;;;9.58;100.00
36828;BME280;22766;48.042;11.192;2022-10-26T01:10:50;95183.22;;;9.63;100.00
36828;BME280;22766;48.042;11.192;2022-10-26T01:13:17;95191.22;;;9.60;100.00
36828;BME280;22766;48.042;11.192;2022-10-26T01:15:53;95188.25;;;9.55;100.00
36828;BME280;22766;48.042;11.192;2022-10-26T01:23:36;95193.25;;;9.56;100.00
36828;BME280;22766;48.042;11.192;2022-10-26T01:31:47;95186.16;;;9.68;100.00
36828;BME280;22766;48.042;11.192;2022-10-26T01:34:35;95190.91;;;9.72;100.00
36828;BME280;22766;48.042;11.192;2022-10-26T01:37:10;95191.03;;;9.71;100.00
36828;BME280;22766;48.042;11.192;2022-10-26T01:39:43;95190.75;;;9.74;100.00
36828;BME280;22766;48.042;11.192;2022-10-26T01:42:14;95192.88;;;9.78;100.00
36828;BME280;22766;48.042;11.192;2022-10-26T01:44:46;95199.13;;;9.85;100.00
36828;BME280;22766;48.042;11.192;2022-10-26T01:47:16;95195.06;;;9.83;100.00
36828;BME280;22766;48.042;11.192;2022-10-26T01:49:47;95199.53;;;9.81;100.00
36828;BME280;22766;48.042;11.192;2022-10-26T01:52:17;95211.16;;;9.94;100.00
36828;BME280;22766;48.042;11.192;2022-10-26T01:54:44;95202.94;;;10.08;100.00
36828;BME280;22766;48.042;11.192;2022-10-26T01:57:13;95205.44;;;10.00;100.00
36828;BME280;22766;48.042;11.192;2022-10-26T02:21:24;95203.66;;;10.10;100.00
36828;BME280;22766;48.042;11.192;2022-10-26T02:23:54;95190.84;;;10.09;100.00
36828;BME280;22766;48.042;11.192;2022-10-26T02:26:25;95194.13;;;10.11;100.00
36828;BME280;22766;48.042;11.192;2022-10-26T02:28:55;95183.38;;;10.15;100.00
36828;BME280;22766;48.042;11.192;2022-10-26T02:31:23;95184.31;;;10.14;100.00
36828;BME280;22766;48.042;11.192;2022-10-26T02:33:52;95182.72;;;10.13;100.00
36828;BME280;22766;48.042;11.192;2022-10-26T02:36:24;95181.88;;;10.13;100.00
36828;BME280;22766;48.042;11.192;2022-10-26T02:38:53;95164.50;;;10.15;100.00
36828;BME280;22766;48.042;11.192;2022-10-26T02:41:22;95150.34;;;10.19;100.00
36828;BME280;22766;48.042;11.192;2022-10-26T02:43:58;95158.41;;;10.16;100.00
36828;BME280;22766;48.042;11.192;2022-10-26T02:46:26;95162.69;;;10.25;100.00
36828;BME280;22766;48.042;11.192;2022-10-26T02:48:54;95161.13;;;10.32;100.00
36828;BME280;22766;48.042;11.192;2022-10-26T02:54:18;95139.81;;;10.30;100.00
36828;BME280;22766;48.042;11.192;2022-10-26T02:56:56;95135.53;;;10.21;100.00
36828;BME280;22766;48.042;11.192;2022-10-26T02:59:27;95131.78;;;10.15;100.00
36828;BME280;22766;48.042;11.192;2022-10-26T03:01:56;95133.03;;;10.11;100.00
36828;BME280;22766;48.042;11.192;2022-10-26T03:04:31;95138.19;;;10.11;100.00
36828;BME280;22766;48.042;11.192;2022-10-26T03:06:58;95136.66;;;10.09;100.00
36828;BME280;22766;48.042;11.192;2022-10-26T03:09:25;95136.47;;;10.02;100.00
36828;BME280;22766;48.042;11.192;2022-10-26T03:11:52;95129.16;;;9.98;100.00
36828;BME280;22766;48.042;11.192;2022-10-26T03:14:19;95128.31;;;9.97;100.00
36828;BME280;22766;48.042;11.192;2022-10-26T03:16:46;95128.06;;;10.00;100.00
36828;BME280;22766;48.042;11.192;2022-10-26T03:19:13;95126.97;;;10.03;100.00
36828;BME280;22766;48.042;11.192;2022-10-26T03:21:39;95132.63;;;10.06;100.00
36828;BME280;22766;48.042;11.192;2022-10-26T03:24:08;95129.91;;;10.08;100.00
36828;BME280;22766;48.042;11.192;2022-10-26T03:26:34;95132.25;;;10.01;100.00
36828;BME280;22766;48.042;11.192;2022-10-26T03:29:01;95139.47;;;9.98;100.00
36828;BME280;22766;48.042;11.192;2022-10-26T03:31:28;95152.09;;;10.01;100.00
36828;BME280;22766;48.042;11.192;2022-10-26T03:33:54;95154.78;;;9.99;100.00
36828;BME280;22766;48.042;11.192;2022-10-26T03:36:21;95167.41;;;10.02;100.00
36828;BME280;22766;48.042;11.192;2022-10-26T03:38:48;95157.91;;;10.03;100.00
36828;BME280;22766;48.042;11.192;2022-10-26T03:41:14;95159.66;;;10.12;100.00
36828;BME280;22766;48.042;11.192;2022-10-26T03:43:41;95172.47;;;10.21;100.00
36828;BME280;22766;48.042;11.192;2022-10-26T03:46:07;95169.09;;;10.21;100.00
36828;BME280;22766;48.042;11.192;2022-10-26T03:48:34;95170.41;;;10.25;100.00
36828;BME280;22766;48.042;11.192;2022-10-26T03:51:00;95173.88;;;10.33;100.00
36828;BME280;22766;48.042;11.192;2022-10-26T03:53:27;95172.63;;;10.38;100.00
36828;BME280;22766;48.042;11.192;2022-10-26T03:55:54;95171.97;;;10.35;100.00
36828;BME280;22766;48.042;11.192;2022-10-26T03:58:21;95171.03;;;10.37;100.00
36828;BME280;22766;48.042;11.192;2022-10-26T04:00:47;95177.78;;;10.38;100.00
36828;BME280;22766;48.042;11.192;2022-10-26T04:03:14;95168.13;;;10.40;100.00
36828;BME280;22766;48.042;11.192;2022-10-26T04:05:41;95172.34;;;10.41;100.00
36828;BME280;22766;48.042;11.192;2022-10-26T04:08:08;95167.97;;;10.41;100.00
36828;BME280;22766;48.042;11.192;2022-10-26T04:10:34;95176.28;;;10.45;100.00
36828;BME280;22766;48.042;11.192;2022-10-26T04:13:01;95176.94;;;10.47;100.00
36828;BME280;22766;48.042;11.192;2022-10-26T04:15:28;95172.56;;;10.47;100.00
36828;BME280;22766;48.042;11.192;2022-10-26T04:17:56;95169.03;;;10.48;100.00
36828;BME280;22766;48.042;11.192;2022-10-26T04:20:23;95172.94;;;10.52;100.00
36828;BME280;22766;48.042;11.192;2022-10-26T04:23:04;95187.47;;;10.71;100.00
36828;BME280;22766;48.042;11.192;2022-10-26T04:25:32;95217.34;;;10.73;100.00
36828;BME280;22766;48.042;11.192;2022-10-26T04:28:00;95235.97;;;10.77;100.00
36828;BME280;22766;48.042;11.192;2022-10-26T04:30:28;95240.16;;;10.78;100.00
36828;BME280;22766;48.042;11.192;2022-10-26T04:32:55;95241.84;;;10.69;100.00
36828;BME280;22766;48.042;11.192;2022-10-26T04:35:21;95252.19;;;10.69;100.00
36828;BME280;22766;48.042;11.192;2022-10-26T04:37:48;95254.63;;;10.71;100.00
36828;BME280;22766;48.042;11.192;2022-10-26T04:40:15;95252.78;;;10.81;100.00
36828;BME280;22766;48.042;11.192;2022-10-26T04:42:44;95252.47;;;11.01;100.00
36828;BME280;22766;48.042;11.192;2022-10-26T04:45:13;95285.59;;;11.06;100.00
36828;BME280;22766;48.042;11.192;2022-10-26T04:47:40;95278.91;;;11.13;100.00
36828;BME280;22766;48.042;11.192;2022-10-26T04:50:09;95299.19;;;11.08;100.00
36828;BME280;22766;48.042;11.192;2022-10-26T04:52:36;95313.75;;;11.09;100.00
36828;BME280;22766;48.042;11.192;2022-10-26T04:55:03;95324.09;;;11.09;100.00
36828;BME280;22766;48.042;11.192;2022-10-26T04:57:34;95312.69;;;11.02;100.00
36828;BME280;22766;48.042;11.192;2022-10-26T05:00:03;95317.84;;;11.02;100.00
36828;BME280;22766;48.042;11.192;2022-10-26T05:02:30;95338.78;;;11.08;100.00
36828;BME280;22766;48.042;11.192;2022-10-26T05:04:57;95326.94;;;11.06;100.00
36828;BME280;22766;48.042;11.192;2022-10-26T05:07:23;95322.91;;;11.03;100.00
36828;BME280;22766;48.042;11.192;2022-10-26T05:09:50;95310.13;;;11.02;100.00
36828;BME280;22766;48.042;11.192;2022-10-26T05:12:17;95313.59;;;11.10;100.00
36828;BME280;22766;48.042;11.192;2022-10-26T05:14:43;95316.91;;;11.03;100.00
36828;BME280;22766;48.042;11.192;2022-10-26T05:17:10;95316.75;;;10.87;100.00
36828;BME280;22766;48.042;11.192;2022-10-26T05:19:36;95305.47;;;10.88;100.00
36828;BME280;22766;48.042;11.192;2022-10-26T05:22:03;95304.94;;;11.02;100.00
36828;BME280;22766;48.042;11.192;2022-10-26T05:24:30;95304.00;;;11.20;100.00
36828;BME280;22766;48.042;11.192;2022-10-26T05:26:56;95318.31;;;11.32;100.00
36828;BME280;22766;48.042;11.192;2022-10-26T05:29:23;95328.72;;;11.41;100.00
36828;BME280;22766;48.042;11.192;2022-10-26T05:31:50;95332.13;;;11.41;100.00
36828;BME280;22766;48.042;11.192;2022-10-26T05:34:17;95325.47;;;11.39;100.00
36828;BME280;22766;48.042;11.192;2022-10-26T05:36:43;95329.38;;;11.43;100.00
36828;BME280;22766;48.042;11.192;2022-10-26T05:39:10;95340.47;;;11.53;100.00
36828;BME280;22766;48.042;11.192;2022-10-26T05:41:36;95349.41;;;11.58;100.00
36828;BME280;22766;48.042;11.192;2022-10-26T05:44:03;95343.25;;;11.59;100.00
36828;BME280;22766;48.042;11.192;2022-10-26T05:46:30;95350.34;;;11.57;100.00
36828;BME280;22766;48.042;11.192;2022-10-26T05:48:56;95348.06;;;11.54;100.00
36828;BME280;22766;48.042;11.192;2022-10-26T05:51:23;95339.34;;;11.55;100.00
36828;BME280;22766;48.042;11.192;2022-10-26T05:53:50;95345.91;;;11.50;100.00
36828;BME280;22766;48.042;11.192;2022-10-26T05:56:33;95337.66;;;11.46;100.00
36828;BME280;22766;48.042;11.192;2022-10-26T05:59:00;95340.66;;;11.42;100.00
36828;BME280;22766;48.042;11.192;2022-10-26T06:06:46;95365.28;;;11.46;100.00
36828;BME280;22766;48.042;11.192;2022-10-26T06:09:16;95356.69;;;11.63;100.00
36828;BME280;22766;48.042;11.192;2022-10-26T06:11:43;95357.53;;;11.81;100.00
36828;BME280;22766;48.042;11.192;2022-10-26T06:14:10;95364.72;;;11.95;100.00
36828;BME280;22766;48.042;11.192;2022-10-26T06:19:51;95359.00;;;12.09;100.00
36828;BME280;22766;48.042;11.192;2022-10-26T06:30:11;95356.00;;;12.21;100.00
36828;BME280;22766;48.042;11.192;2022-10-26T06:32:39;95356.31;;;12.18;100.00
36828;BME280;22766;48.042;11.192;2022-10-26T06:35:20;95354.50;;;12.11;100.00
36828;BME280;22766;48.042;11.192;2022-10-26T06:37:51;95350.25;;;12.10;100.00
36828;BME280;22766;48.042;11.192;2022-10-26T06:40:20;95353.38;;;12.13;100.00
36828;BME280;22766;48.042;11.192;2022-10-26T06:42:47;95363.91;;;12.20;100.00
36828;BME280;22766;48.042;11.192;2022-10-26T06:45:15;95355.22;;;12.29;100.00
36828;BME280;22766;48.042;11.192;2022-10-26T06:47:52;95346.84;;;12.35;100.00
36828;BME280;22766;48.042;11.192;2022-10-26T06:50:42;95353.06;;;12.50;100.00
36828;BME280;22766;48.042;11.192;2022-10-26T06:55:52;95347.72;;;12.44;100.00
36828;BME280;22766;48.042;11.192;2022-10-26T06:58:21;95363.38;;;12.34;100.00
36828;BME280;22766;48.042;11.192;2022-10-26T07:00:51;95361.44;;;12.36;100.00
36828;BME280;22766;48.042;11.192;2022-10-26T07:03:18;95371.63;;;12.38;100.00
36828;BME280;22766;48.042;11.192;2022-10-26T07:05:45;95360.03;;;12.50;100.00
36828;BME280;22766;48.042;11.192;2022-10-26T07:08:12;95366.50;;;12.54;100.00
36828;BME280;22766;48.042;11.192;2022-10-26T07:10:39;95364.75;;;12.54;100.00
36828;BME280;22766;48.042;11.192;2022-10-26T07:13:05;95365.41;;;12.56;100.00
36828;BME280;22766;48.042;11.192;2022-10-26T07:15:33;95366.72;;;12.60;100.00
36828;BME280;22766;48.042;11.192;2022-10-26T07:17:59;95368.31;;;12.53;100.00
36828;BME280;22766;48.042;11.192;2022-10-26T07:20:26;95370.69;;;12.47;100.00
36828;BME280;22766;48.042;11.192;2022-10-26T07:22:54;95374.41;;;12.44;100.00
36828;BME280;22766;48.042;11.192;2022-10-26T07:25:23;95376.19;;;12.44;100.00
36828;BME280;22766;48.042;11.192;2022-10-26T07:27:50;95366.78;;;12.43;100.00
36828;BME280;22766;48.042;11.192;2022-10-26T07:30:17;95371.78;;;12.36;100.00
36828;BME280;22766;48.042;11.192;2022-10-26T07:32:43;95367.06;;;12.32;100.00
36828;BME280;22766;48.042;11.192;2022-10-26T07:35:10;95363.81;;;12.30;100.00
36828;BME280;22766;48.042;11.192;2022-10-26T07:37:37;95356.22;;;12.28;100.00
36828;BME280;22766;48.042;11.192;2022-10-26T07:40:04;95363.38;;;12.34;100.00
36828;BME280;22766;48.042;11.192;2022-10-26T07:42:33;95374.00;;;12.31;100.00
36828;BME280;22766;48.042;11.192;2022-10-26T07:44:59;95363.53;;;12.41;100.00
36828;BME280;22766;48.042;11.192;2022-10-26T07:47:26;95362.63;;;12.50;100.00
36828;BME280;22766;48.042;11.192;2022-10-26T07:49:52;95361.38;;;12.62;100.00
36828;BME280;22766;48.042;11.192;2022-10-26T07:52:19;95362.25;;;12.78;100.00
36828;BME280;22766;48.042;11.192;2022-10-26T07:54:46;95356.63;;;12.91;100.00
36828;BME280;22766;48.042;11.192;2022-10-26T07:57:15;95365.22;;;12.99;100.00
36828;BME280;22766;48.042;11.192;2022-10-26T07:59:42;95373.06;;;13.07;100.00
36828;BME280;22766;48.042;11.192;2022-10-26T08:02:09;95369.53;;;13.17;100.00
36828;BME280;22766;48.042;11.192;2022-10-26T08:04:35;95378.31;;;13.24;100.00
36828;BME280;22766;48.042;11.192;2022-10-26T08:07:02;95381.56;;;13.34;100.00
36828;BME280;22766;48.042;11.192;2022-10-26T08:09:29;95383.69;;;13.46;100.00
36828;BME280;22766;48.042;11.192;2022-10-26T08:11:55;95387.44;;;13.68;100.00
36828;BME280;22766;48.042;11.192;2022-10-26T08:14:22;95377.88;;;13.84;100.00
36828;BME280;22766;48.042;11.192;2022-10-26T08:16:48;95376.41;;;13.98;100.00
36828;BME280;22766;48.042;11.192;2022-10-26T08:19:18;95375.59;;;14.05;100.00
36828;BME280;22766;48.042;11.192;2022-10-26T08:21:45;95380.59;;;14.23;100.00
36828;BME280;22766;48.042;11.192;2022-10-26T08:24:11;95376.84;;;14.42;100.00
36828;BME280;22766;48.042;11.192;2022-10-26T08:26:38;95370.19;;;14.94;100.00
36828;BME280;22766;48.042;11.192;2022-10-26T08:29:05;95368.88;;;15.29;100.00
36828;BME280;22766;48.042;11.192;2022-10-26T08:31:32;95380.19;;;15.36;100.00
36828;BME280;22766;48.042;11.192;2022-10-26T08:33:59;95377.88;;;15.41;100.00
36828;BME280;22766;48.042;11.192;2022-10-26T08:36:26;95375.25;;;15.71;100.00
36828;BME280;22766;48.042;11.192;2022-10-26T08:38:53;95374.38;;;16.02;100.00
36828;BME280;22766;48.042;11.192;2022-10-26T08:44:04;95381.63;;;16.29;100.00
36828;BME280;22766;48.042;11.192;2022-10-26T08:46:40;95386.28;;;15.96;100.00
36828;BME280;22766;48.042;11.192;2022-10-26T08:49:31;95395.84;;;15.81;100.00
36828;BME280;22766;48.042;11.192;2022-10-26T08:52:03;95390.69;;;15.73;100.00
36828;BME280;22766;48.042;11.192;2022-10-26T08:54:37;95388.00;;;15.89;100.00
36828;BME280;22766;48.042;11.192;2022-10-26T08:57:14;95384.59;;;16.26;100.00
36828;BME280;22766;48.042;11.192;2022-10-26T08:59:49;95392.03;;;16.80;100.00
36828;BME280;22766;48.042;11.192;2022-10-26T09:02:19;95387.78;;;16.94;100.00
36828;BME280;22766;48.042;11.192;2022-10-26T09:04:47;95385.34;;;17.07;100.00
36828;BME280;22766;48.042;11.192;2022-10-26T09:15:25;95392.16;;;17.23;100.00
36828;BME280;22766;48.042;11.192;2022-10-26T09:20:44;95410.03;;;16.38;100.00
36828;BME280;22766;48.042;11.192;2022-10-26T09:26:13;95421.19;;;16.47;100.00
36828;BME280;22766;48.042;11.192;2022-10-26T09:28:40;95416.19;;;16.89;100.00
36828;BME280;22766;48.042;11.192;2022-10-26T09:31:12;95422.63;;;17.37;98.68
36828;BME280;22766;48.042;11.192;2022-10-26T09:33:40;95420.34;;;18.05;98.46
36828;BME280;22766;48.042;11.192;2022-10-26T09:36:11;95418.97;;;18.30;91.35
36828;BME280;22766;48.042;11.192;2022-10-26T09:38:57;95419.50;;;18.19;88.37
36828;BME280;22766;48.042;11.192;2022-10-26T09:41:37;95415.25;;;19.01;85.02
36828;BME280;22766;48.042;11.192;2022-10-26T09:47:03;95413.81;;;19.33;86.60
36828;BME280;22766;48.042;11.192;2022-10-26T09:49:40;95424.31;;;19.39;84.64
36828;BME280;22766;48.042;11.192;2022-10-26T09:52:10;95425.59;;;19.22;80.53
36828;BME280;22766;48.042;11.192;2022-10-26T09:54:41;95435.72;;;19.73;78.99
36828;BME280;22766;48.042;11.192;2022-10-26T09:57:13;95424.75;;;20.29;75.28
36828;BME280;22766;48.042;11.192;2022-10-26T09:59:40;95439.25;;;20.71;68.47
36828;BME280;22766;48.042;11.192;2022-10-26T10:02:33;95443.00;;;19.97;70.28
36828;BME280;22766;48.042;11.192;2022-10-26T10:05:00;95440.50;;;19.63;77.43
36828;BME280;22766;48.042;11.192;2022-10-26T10:07:27;95441.44;;;19.01;77.63
36828;BME280;22766;48.042;11.192;2022-10-26T10:12:40;95448.28;;;18.47;83.60
36828;BME280;22766;48.042;11.192;2022-10-26T10:15:19;95449.66;;;18.22;89.10
36828;BME280;22766;48.042;11.192;2022-10-26T10:17:53;95453.59;;;18.11;90.27
36828;BME280;22766;48.042;11.192;2022-10-26T10:20:30;95458.06;;;17.96;93.07
36828;BME280;22766;48.042;11.192;2022-10-26T10:22:59;95456.44;;;17.59;95.44
36828;BME280;22766;48.042;11.192;2022-10-26T10:25:36;95463.75;;;17.64;95.88
36828;BME280;22766;48.042;11.192;2022-10-26T10:28:20;95460.13;;;17.65;96.06
36828;BME280;22766;48.042;11.192;2022-10-26T10:31:04;95463.66;;;17.57;97.40
36828;BME280;22766;48.042;11.192;2022-10-26T10:34:22;95470.06;;;17.55;100.00
36828;BME280;22766;48.042;11.192;2022-10-26T10:36:50;95464.47;;;17.58;100.00
36828;BME280;22766;48.042;11.192;2022-10-26T10:39:36;95472.00;;;17.67;100.00
36828;BME280;22766;48.042;11.192;2022-10-26T10:42:09;95485.47;;;17.86;98.94
36828;BME280;22766;48.042;11.192;2022-10-26T10:44:39;95468.06;;;17.93;97.10
36828;BME280;22766;48.042;11.192;2022-10-26T10:47:17;95483.63;;;18.22;87.81
36828;BME280;22766;48.042;11.192;2022-10-26T10:49:51;95484.41;;;18.16;90.50
36828;BME280;22766;48.042;11.192;2022-10-26T10:52:24;95483.47;;;18.23;92.07
36828;BME280;22766;48.042;11.192;2022-10-26T10:55:17;95484.88;;;18.26;90.46
36828;BME280;22766;48.042;11.192;2022-10-26T11:00:18;95479.16;;;18.58;87.89
36828;BME280;22766;48.042;11.192;2022-10-26T11:03:05;95481.13;;;18.56;84.32
36828;BME280;22766;48.042;11.192;2022-10-26T11:08:34;95479.31;;;18.78;88.58
36828;BME280;22766;48.042;11.192;2022-10-26T11:11:12;95475.72;;;19.13;86.91
36828;BME280;22766;48.042;11.192;2022-10-26T11:16:53;95480.00;;;19.61;77.04
36828;BME280;22766;48.042;11.192;2022-10-26T11:19:31;95476.31;;;19.15;83.61
36828;BME280;22766;48.042;11.192;2022-10-26T11:22:04;95483.47;;;19.00;88.99
36828;BME280;22766;48.042;11.192;2022-10-26T11:24:44;95481.25;;;18.97;91.67
36828;BME280;22766;48.042;11.192;2022-10-26T11:32:19;95487.72;;;19.01;90.51
36828;BME280;22766;48.042;11.192;2022-10-26T11:34:58;95492.72;;;19.30;86.06
36828;BME280;22766;48.042;11.192;2022-10-26T11:40:37;95492.72;;;18.96;95.08
36828;BME280;22766;48.042;11.192;2022-10-26T11:43:26;95490.00;;;19.10;96.58
36828;BME280;22766;48.042;11.192;2022-10-26T11:48:50;95494.47;;;19.16;93.60
36828;BME280;22766;48.042;11.192;2022-10-26T11:51:44;95495.50;;;19.22;91.89
36828;BME280;22766;48.042;11.192;2022-10-26T11:54:32;95499.22;;;19.06;99.78
36828;BME280;22766;48.042;11.192;2022-10-26T11:57:00;95500.13;;;18.92;94.06
36828;BME280;22766;48.042;11.192;2022-10-26T11:59:30;95507.53;;;18.82;95.78
36828;BME280;22766;48.042;11.192;2022-10-26T12:02:16;95509.94;;;18.84;93.09
36828;BME280;22766;48.042;11.192;2022-10-26T12:04:48;95503.97;;;18.96;87.46
36828;BME280;22766;48.042;11.192;2022-10-26T12:07:25;95503.13;;;18.89;87.51
36828;BME280;22766;48.042;11.192;2022-10-26T12:09:53;95510.81;;;18.70;88.35
36828;BME280;22766;48.042;11.192;2022-10-26T12:17:52;95524.06;;;18.89;86.46
36828;BME280;22766;48.042;11.192;2022-10-26T12:22:53;95524.06;;;18.89;87.86
36828;BME280;22766;48.042;11.192;2022-10-26T12:25:20;95527.44;;;18.83;89.01
36828;BME280;22766;48.042;11.192;2022-10-26T12:30:26;95528.47;;;18.61;89.96
36828;BME280;22766;48.042;11.192;2022-10-26T12:38:20;95534.38;;;18.70;92.17
36828;BME280;22766;48.042;11.192;2022-10-26T12:43:37;95536.97;;;18.91;92.14
36828;BME280;22766;48.042;11.192;2022-10-26T12:54:25;95541.09;;;19.06;94.35
36828;BME280;22766;48.042;11.192;2022-10-26T12:57:15;95539.44;;;18.99;92.81
36828;BME280;22766;48.042;11.192;2022-10-26T12:59:56;95543.56;;;18.87;97.80
36828;BME280;22766;48.042;11.192;2022-10-26T13:07:45;95556.66;;;18.87;92.50
36828;BME280;22766;48.042;11.192;2022-10-26T13:12:53;95557.56;;;19.28;91.66
36828;BME280;22766;48.042;11.192;2022-10-26T13:20:25;95558.81;;;19.66;82.05
36828;BME280;22766;48.042;11.192;2022-10-26T13:22:53;95551.25;;;19.84;78.22
36828;BME280;22766;48.042;11.192;2022-10-26T13:25:30;95557.84;;;19.74;82.77
36828;BME280;22766;48.042;11.192;2022-10-26T13:28:05;95560.03;;;19.70;84.29
36828;BME280;22766;48.042;11.192;2022-10-26T13:33:00;95558.13;;;19.92;83.30
36828;BME280;22766;48.042;11.192;2022-10-26T13:35:30;95555.50;;;19.92;86.32
36828;BME280;22766;48.042;11.192;2022-10-26T13:37:59;95568.69;;;20.11;79.31
36828;BME280;22766;48.042;11.192;2022-10-26T13:40:35;95561.84;;;20.17;78.88
36828;BME280;22766;48.042;11.192;2022-10-26T13:43:05;95560.16;;;20.70;71.47
36828;BME280;22766;48.042;11.192;2022-10-26T13:45:59;95555.16;;;21.07;70.28
36828;BME280;22766;48.042;11.192;2022-10-26T13:48:40;95554.31;;;20.81;66.40
36828;BME280;22766;48.042;11.192;2022-10-26T13:51:19;95562.72;;;20.30;68.47
36828;BME280;22766;48.042;11.192;2022-10-26T13:56:30;95577.44;;;19.84;70.71
36828;BME280;22766;48.042;11.192;2022-10-26T13:59:07;95581.88;;;19.49;77.74
36828;BME280;22766;48.042;11.192;2022-10-26T14:01:35;95572.78;;;19.39;76.90
36828;BME280;22766;48.042;11.192;2022-10-26T14:04:25;95578.13;;;19.03;81.57
36828;BME280;22766;48.042;11.192;2022-10-26T14:06:52;95579.34;;;18.80;82.24
36828;BME280;22766;48.042;11.192;2022-10-26T14:09:21;95581.53;;;18.76;85.39
36828;BME280;22766;48.042;11.192;2022-10-26T14:11:50;95574.34;;;18.63;85.42
36828;BME280;22766;48.042;11.192;2022-10-26T14:14:23;95586.94;;;18.53;88.96
36828;BME280;22766;48.042;11.192;2022-10-26T14:16:52;95581.00;;;18.45;86.93
36828;BME280;22766;48.042;11.192;2022-10-26T14:19:33;95590.00;;;18.57;87.12
36828;BME280;22766;48.042;11.192;2022-10-26T14:22:01;95588.56;;;18.54;87.22
36828;BME280;22766;48.042;11.192;2022-10-26T14:24:34;95586.13;;;18.53;88.71
36828;BME280;22766;48.042;11.192;2022-10-26T14:27:15;95582.50;;;18.54;92.34
36828;BME280;22766;48.042;11.192;2022-10-26T14:29:42;95586.56;;;18.56;91.29
36828;BME280;22766;48.042;11.192;2022-10-26T14:32:31;95593.22;;;18.59;93.15
36828;BME280;22766;48.042;11.192;2022-10-26T14:34:58;95598.97;;;18.48;93.31
36828;BME280;22766;48.042;11.192;2022-10-26T14:37:40;95597.09;;;18.42;93.60
36828;BME280;22766;48.042;11.192;2022-10-26T14:40:15;95595.28;;;18.42;94.04
36828;BME280;22766;48.042;11.192;2022-10-26T14:42:44;95600.94;;;18.31;92.31
36828;BME280;22766;48.042;11.192;2022-10-26T14:48:03;95600.66;;;18.41;97.04
36828;BME280;22766;48.042;11.192;2022-10-26T14:50:31;95608.50;;;18.41;98.74
36828;BME280;22766;48.042;11.192;2022-10-26T14:53:15;95598.16;;;18.33;96.44
36828;BME280;22766;48.042;11.192;2022-10-26T14:55:48;95604.13;;;18.27;97.29
36828;BME280;22766;48.042;11.192;2022-10-26T14:58:36;95608.28;;;18.21;97.84
36828;BME280;22766;48.042;11.192;2022-10-26T15:03:55;95610.47;;;18.03;95.55
36828;BME280;22766;48.042;11.192;2022-10-26T15:08:57;95625.91;;;17.98;94.57
36828;BME280;22766;48.042;11.192;2022-10-26T15:11:28;95626.25;;;17.95;94.59
36828;BME280;22766;48.042;11.192;2022-10-26T15:13:57;95622.41;;;17.91;94.18
36828;BME280;22766;48.042;11.192;2022-10-26T15:16:26;95623.22;;;17.77;95.38
36828;BME280;22766;48.042;11.192;2022-10-26T15:18:57;95631.03;;;17.77;95.26
36828;BME280;22766;48.042;11.192;2022-10-26T15:21:34;95622.84;;;17.65;96.40
36828;BME280;22766;48.042;11.192;2022-10-26T15:24:12;95623.75;;;17.58;96.56
36828;BME280;22766;48.042;11.192;2022-10-26T15:26:46;95630.31;;;17.54;95.58
36828;BME280;22766;48.042;11.192;2022-10-26T15:29:35;95632.53;;;17.42;97.45
36828;BME280;22766;48.042;11.192;2022-10-26T15:32:05;95637.03;;;17.34;98.29
36828;BME280;22766;48.042;11.192;2022-10-26T15:34:32;95634.47;;;17.26;98.74
36828;BME280;22766;48.042;11.192;2022-10-26T15:36:58;95644.56;;;17.29;98.62